sensor_id;sensor_type;location;lat;lon;timestamp;P1;durP1;ratioP1;P2;durP2;ratioP2
19312;SDS011;9791;50.820;4.406;2023-06-22T00:00:57;5.10;;;3.10;;
19312;SDS011;9791;50.820;4.406;2023-06-22T00:03:23;6.35;;;3.15;;
19312;SDS011;9791;50.820;4.406;2023-06-22T00:05:50;5.53;;;2.90;;
19312;SDS011;9791;50.820;4.406;2023-06-22T00:08:17;4.78;;;2.60;;
19312;SDS011;9791;50.820;4.406;2023-06-22T00:10:43;5.82;;;3.28;;
19312;SDS011;9791;50.820;4.406;2023-06-22T00:13:10;5.45;;;2.88;;
19312;SDS011;9791;50.820;4.406;2023-06-22T00:15:36;5.55;;;3.05;;
19312;SDS011;9791;50.820;4.406;2023-06-22T00:18:04;4.40;;;2.58;;
19312;SDS011;9791;50.820;4.406;2023-06-22T00:20:31;4.85;;;2.75;;
19312;SDS011;9791;50.820;4.406;2023-06-22T00:22:57;6.88;;;3.25;;
19312;SDS011;9791;50.820;4.406;2023-06-22T00:25:24;5.28;;;2.78;;
19312;SDS011;9791;50.820;4.406;2023-06-22T00:27:50;7.13;;;2.88;;
19312;SDS011;9791;50.820;4.406;2023-06-22T00:30:16;7.32;;;2.88;;
19312;SDS011;9791;50.820;4.406;2023-06-22T00:32:43;5.13;;;2.40;;
19312;SDS011;9791;50.820;4.406;2023-06-22T00:35:09;6.03;;;2.80;;
19312;SDS011;9791;50.820;4.406;2023-06-22T00:37:36;5.55;;;3.08;;
19312;SDS011;9791;50.820;4.406;2023-06-22T00:40:03;6.32;;;3.05;;
19312;SDS011;9791;50.820;4.406;2023-06-22T00:42:30;5.20;;;2.85;;
19312;SDS011;9791;50.820;4.406;2023-06-22T00:44:56;6.63;;;3.47;;
19312;SDS011;9791;50.820;4.406;2023-06-22T00:47:22;4.93;;;2.75;;
19312;SDS011;9791;50.820;4.406;2023-06-22T00:49:49;5.05;;;2.67;;
19312;SDS011;9791;50.820;4.406;2023-06-22T00:52:21;4.97;;;2.63;;
19312;SDS011;9791;50.820;4.406;2023-06-22T00:54:52;6.25;;;3.50;;
19312;SDS011;9791;50.820;4.406;2023-06-22T00:57:18;5.55;;;3.00;;
19312;SDS011;9791;50.820;4.406;2023-06-22T00:59:44;5.47;;;3.05;;
19312;SDS011;9791;50.820;4.406;2023-06-22T01:02:11;6.85;;;3.17;;
19312;SDS011;9791;50.820;4.406;2023-06-22T01:04:38;5.75;;;3.10;;
19312;SDS011;9791;50.820;4.406;2023-06-22T01:09:44;6.10;;;3.42;;
19312;SDS011;9791;50.820;4.406;2023-06-22T01:12:12;6.07;;;3.08;;
19312;SDS011;9791;50.820;4.406;2023-06-22T01:14:43;5.93;;;3.40;;
19312;SDS011;9791;50.820;4.406;2023-06-22T01:17:13;6.63;;;3.17;;
19312;SDS011;9791;50.820;4.406;2023-06-22T01:19:51;7.03;;;3.58;;
19312;SDS011;9791;50.820;4.406;2023-06-22T01:22:23;7.72;;;3.85;;
19312;SDS011;9791;50.820;4.406;2023-06-22T01:27:47;7.13;;;3.45;;
19312;SDS011;9791;50.820;4.406;2023-06-22T01:30:15;5.40;;;2.80;;
19312;SDS011;9791;50.820;4.406;2023-06-22T01:32:42;6.30;;;2.80;;
19312;SDS011;9791;50.820;4.406;2023-06-22T01:35:08;6.78;;;3.70;;
19312;SDS011;9791;50.820;4.406;2023-06-22T01:37:35;7.22;;;3.40;;
19312;SDS011;9791;50.820;4.406;2023-06-22T01:40:02;6.55;;;3.83;;
19312;SDS011;9791;50.820;4.406;2023-06-22T01:42:30;5.47;;;3.90;;
19312;SDS011;9791;50.820;4.406;2023-06-22T01:44:57;7.78;;;4.10;;
19312;SDS011;9791;50.820;4.406;2023-06-22T01:47:24;8.57;;;5.13;;
19312;SDS011;9791;50.820;4.406;2023-06-22T01:49:50;9.65;;;4.05;;
19312;SDS011;9791;50.820;4.406;2023-06-22T01:52:17;8.60;;;4.60;;
19312;SDS011;9791;50.820;4.406;2023-06-22T01:54:43;6.85;;;4.07;;
19312;SDS011;9791;50.820;4.406;2023-06-22T01:57:10;7.82;;;4.03;;
19312;SDS011;9791;50.820;4.406;2023-06-22T01:59:37;7.30;;;4.32;;
19312;SDS011;9791;50.820;4.406;2023-06-22T02:02:08;8.90;;;4.40;;
19312;SDS011;9791;50.820;4.406;2023-06-22T02:04:36;7.82;;;4.63;;
19312;SDS011;9791;50.820;4.406;2023-06-22T02:07:05;7.32;;;4.25;;
19312;SDS011;9791;50.820;4.406;2023-06-22T02:09:35;6.93;;;4.07;;
19312;SDS011;9791;50.820;4.406;2023-06-22T02:12:01;8.60;;;4.63;;
19312;SDS011;9791;50.820;4.406;2023-06-22T02:14:28;7.03;;;4.57;;
19312;SDS011;9791;50.820;4.406;2023-06-22T02:16:54;9.73;;;5.10;;
19312;SDS011;9791;50.820;4.406;2023-06-22T02:19:24;7.07;;;4.88;;
19312;SDS011;9791;50.820;4.406;2023-06-22T02:21:50;7.55;;;4.68;;
19312;SDS011;9791;50.820;4.406;2023-06-22T02:24:16;7.57;;;4.90;;
19312;SDS011;9791;50.820;4.406;2023-06-22T02:26:43;7.90;;;4.93;;
19312;SDS011;9791;50.820;4.406;2023-06-22T02:29:10;10.00;;;5.22;;
19312;SDS011;9791;50.820;4.406;2023-06-22T02:31:36;7.70;;;4.78;;
19312;SDS011;9791;50.820;4.406;2023-06-22T02:34:02;7.18;;;4.40;;
19312;SDS011;9791;50.820;4.406;2023-06-22T02:36:28;7.88;;;4.20;;
19312;SDS011;9791;50.820;4.406;2023-06-22T02:38:55;5.85;;;3.88;;
19312;SDS011;9791;50.820;4.406;2023-06-22T02:41:23;8.55;;;4.38;;
19312;SDS011;9791;50.820;4.406;2023-06-22T02:43:49;7.57;;;4.40;;
19312;SDS011;9791;50.820;4.406;2023-06-22T02:46:15;10.52;;;4.90;;
19312;SDS011;9791;50.820;4.406;2023-06-22T02:48:42;7.00;;;4.38;;
19312;SDS011;9791;50.820;4.406;2023-06-22T02:51:08;8.95;;;4.53;;
19312;SDS011;9791;50.820;4.406;2023-06-22T02:53:34;8.65;;;4.80;;
19312;SDS011;9791;50.820;4.406;2023-06-22T02:56:01;8.70;;;4.78;;
19312;SDS011;9791;50.820;4.406;2023-06-22T02:58:30;10.02;;;5.40;;
19312;SDS011;9791;50.820;4.406;2023-06-22T03:00:58;11.43;;;5.22;;
19312;SDS011;9791;50.820;4.406;2023-06-22T03:03:29;7.35;;;4.85;;
19312;SDS011;9791;50.820;4.406;2023-06-22T03:05:55;8.13;;;4.80;;
19312;SDS011;9791;50.820;4.406;2023-06-22T03:08:21;8.52;;;5.72;;
19312;SDS011;9791;50.820;4.406;2023-06-22T03:10:47;8.48;;;5.20;;
19312;SDS011;9791;50.820;4.406;2023-06-22T03:13:13;8.15;;;5.00;;
19312;SDS011;9791;50.820;4.406;2023-06-22T03:15:39;8.43;;;4.80;;
19312;SDS011;9791;50.820;4.406;2023-06-22T03:18:05;8.23;;;5.03;;
19312;SDS011;9791;50.820;4.406;2023-06-22T03:20:31;7.85;;;5.07;;
19312;SDS011;9791;50.820;4.406;2023-06-22T03:22:58;8.35;;;4.78;;
19312;SDS011;9791;50.820;4.406;2023-06-22T03:25:25;10.38;;;5.35;;
19312;SDS011;9791;50.820;4.406;2023-06-22T03:27:51;10.65;;;5.45;;
19312;SDS011;9791;50.820;4.406;2023-06-22T03:30:17;8.57;;;5.38;;
19312;SDS011;9791;50.820;4.406;2023-06-22T03:32:43;9.25;;;4.95;;
19312;SDS011;9791;50.820;4.406;2023-06-22T03:35:09;8.43;;;5.22;;
19312;SDS011;9791;50.820;4.406;2023-06-22T03:37:38;8.27;;;5.35;;
19312;SDS011;9791;50.820;4.406;2023-06-22T03:40:04;8.48;;;5.28;;
19312;SDS011;9791;50.820;4.406;2023-06-22T03:42:30;9.55;;;5.35;;
19312;SDS011;9791;50.820;4.406;2023-06-22T03:44:56;8.80;;;4.90;;
19312;SDS011;9791;50.820;4.406;2023-06-22T03:47:22;9.20;;;5.50;;
19312;SDS011;9791;50.820;4.406;2023-06-22T03:49:48;8.85;;;5.25;;
19312;SDS011;9791;50.820;4.406;2023-06-22T03:52:14;8.23;;;4.72;;
19312;SDS011;9791;50.820;4.406;2023-06-22T03:54:40;9.48;;;5.78;;
19312;SDS011;9791;50.820;4.406;2023-06-22T03:57:06;8.13;;;4.90;;
19312;SDS011;9791;50.820;4.406;2023-06-22T03:59:33;8.68;;;5.40;;
19312;SDS011;9791;50.820;4.406;2023-06-22T04:01:59;10.98;;;5.70;;
19312;SDS011;9791;50.820;4.406;2023-06-22T04:04:25;10.32;;;5.18;;
19312;SDS011;9791;50.820;4.406;2023-06-22T04:06:51;10.63;;;5.63;;
19312;SDS011;9791;50.820;4.406;2023-06-22T04:09:18;12.55;;;5.60;;
19312;SDS011;9791;50.820;4.406;2023-06-22T04:11:44;8.40;;;5.68;;
19312;SDS011;9791;50.820;4.406;2023-06-22T04:14:10;8.40;;;5.72;;
19312;SDS011;9791;50.820;4.406;2023-06-22T04:16:36;8.95;;;5.93;;
19312;SDS011;9791;50.820;4.406;2023-06-22T04:19:02;9.18;;;5.60;;
19312;SDS011;9791;50.820;4.406;2023-06-22T04:21:28;10.77;;;5.80;;
19312;SDS011;9791;50.820;4.406;2023-06-22T04:23:54;8.45;;;6.05;;
19312;SDS011;9791;50.820;4.406;2023-06-22T04:26:20;8.80;;;5.68;;
19312;SDS011;9791;50.820;4.406;2023-06-22T04:28:47;9.88;;;6.30;;
19312;SDS011;9791;50.820;4.406;2023-06-22T04:31:20;10.70;;;6.63;;
19312;SDS011;9791;50.820;4.406;2023-06-22T04:33:46;9.68;;;6.18;;
19312;SDS011;9791;50.820;4.406;2023-06-22T04:36:12;12.80;;;7.05;;
19312;SDS011;9791;50.820;4.406;2023-06-22T04:38:39;12.10;;;6.35;;
19312;SDS011;9791;50.820;4.406;2023-06-22T04:41:05;9.88;;;5.57;;
19312;SDS011;9791;50.820;4.406;2023-06-22T04:43:33;7.68;;;5.30;;
19312;SDS011;9791;50.820;4.406;2023-06-22T04:45:59;8.82;;;6.35;;
19312;SDS011;9791;50.820;4.406;2023-06-22T04:48:29;9.07;;;5.90;;
19312;SDS011;9791;50.820;4.406;2023-06-22T04:50:58;8.45;;;5.90;;
19312;SDS011;9791;50.820;4.406;2023-06-22T04:53:28;9.35;;;6.03;;
19312;SDS011;9791;50.820;4.406;2023-06-22T04:55:55;9.73;;;6.55;;
19312;SDS011;9791;50.820;4.406;2023-06-22T04:58:21;14.25;;;6.18;;
19312;SDS011;9791;50.820;4.406;2023-06-22T05:00:47;10.52;;;6.90;;
19312;SDS011;9791;50.820;4.406;2023-06-22T05:03:16;10.00;;;6.45;;
19312;SDS011;9791;50.820;4.406;2023-06-22T05:05:43;10.77;;;7.18;;
19312;SDS011;9791;50.820;4.406;2023-06-22T05:08:09;11.80;;;7.07;;
19312;SDS011;9791;50.820;4.406;2023-06-22T05:10:35;10.15;;;6.47;;
19312;SDS011;9791;50.820;4.406;2023-06-22T05:13:01;12.00;;;9.25;;
19312;SDS011;9791;50.820;4.406;2023-06-22T05:15:27;13.45;;;9.18;;
19312;SDS011;9791;50.820;4.406;2023-06-22T05:17:55;13.55;;;9.23;;
19312;SDS011;9791;50.820;4.406;2023-06-22T05:20:23;11.43;;;9.07;;
19312;SDS011;9791;50.820;4.406;2023-06-22T05:22:49;15.18;;;9.80;;
19312;SDS011;9791;50.820;4.406;2023-06-22T05:25:15;13.80;;;10.40;;
19312;SDS011;9791;50.820;4.406;2023-06-22T05:27:41;14.18;;;10.63;;
19312;SDS011;9791;50.820;4.406;2023-06-22T05:30:09;16.27;;;10.55;;
19312;SDS011;9791;50.820;4.406;2023-06-22T05:32:36;14.25;;;10.85;;
19312;SDS011;9791;50.820;4.406;2023-06-22T05:35:03;18.38;;;12.15;;
19312;SDS011;9791;50.820;4.406;2023-06-22T05:37:29;15.85;;;12.10;;
19312;SDS011;9791;50.820;4.406;2023-06-22T05:39:55;16.30;;;11.68;;
19312;SDS011;9791;50.820;4.406;2023-06-22T05:42:22;15.18;;;9.88;;
19312;SDS011;9791;50.820;4.406;2023-06-22T05:44:50;13.63;;;10.43;;
19312;SDS011;9791;50.820;4.406;2023-06-22T05:47:16;13.95;;;10.65;;
19312;SDS011;9791;50.820;4.406;2023-06-22T05:49:42;13.15;;;10.73;;
19312;SDS011;9791;50.820;4.406;2023-06-22T05:52:08;14.25;;;11.25;;
19312;SDS011;9791;50.820;4.406;2023-06-22T05:54:34;17.65;;;10.32;;
19312;SDS011;9791;50.820;4.406;2023-06-22T05:57:00;16.52;;;10.38;;
19312;SDS011;9791;50.820;4.406;2023-06-22T05:59:27;17.30;;;11.80;;
19312;SDS011;9791;50.820;4.406;2023-06-22T06:01:53;17.33;;;12.25;;
19312;SDS011;9791;50.820;4.406;2023-06-22T06:04:19;20.13;;;11.88;;
19312;SDS011;9791;50.820;4.406;2023-06-22T06:06:45;15.57;;;11.98;;
19312;SDS011;9791;50.820;4.406;2023-06-22T06:09:14;14.25;;;11.65;;
19312;SDS011;9791;50.820;4.406;2023-06-22T06:11:40;14.82;;;11.52;;
19312;SDS011;9791;50.820;4.406;2023-06-22T06:14:07;14.80;;;12.50;;
19312;SDS011;9791;50.820;4.406;2023-06-22T06:16:33;17.30;;;11.10;;
19312;SDS011;9791;50.820;4.406;2023-06-22T06:18:59;16.85;;;11.90;;
19312;SDS011;9791;50.820;4.406;2023-06-22T06:21:25;19.55;;;11.70;;
19312;SDS011;9791;50.820;4.406;2023-06-22T06:23:51;14.88;;;11.13;;
19312;SDS011;9791;50.820;4.406;2023-06-22T06:26:18;19.17;;;11.23;;
19312;SDS011;9791;50.820;4.406;2023-06-22T06:28:51;19.27;;;11.30;;
19312;SDS011;9791;50.820;4.406;2023-06-22T06:31:17;16.75;;;11.02;;
19312;SDS011;9791;50.820;4.406;2023-06-22T06:33:43;15.43;;;10.63;;
19312;SDS011;9791;50.820;4.406;2023-06-22T06:36:09;18.02;;;11.07;;
19312;SDS011;9791;50.820;4.406;2023-06-22T06:38:35;18.00;;;11.88;;
19312;SDS011;9791;50.820;4.406;2023-06-22T06:41:01;13.52;;;10.68;;
19312;SDS011;9791;50.820;4.406;2023-06-22T06:43:27;16.77;;;11.23;;
19312;SDS011;9791;50.820;4.406;2023-06-22T06:45:53;13.38;;;10.32;;
19312;SDS011;9791;50.820;4.406;2023-06-22T06:48:19;13.55;;;9.93;;
19312;SDS011;9791;50.820;4.406;2023-06-22T06:50:45;18.73;;;10.98;;
19312;SDS011;9791;50.820;4.406;2023-06-22T06:53:13;14.15;;;10.25;;
19312;SDS011;9791;50.820;4.406;2023-06-22T06:55:39;16.73;;;11.57;;
19312;SDS011;9791;50.820;4.406;2023-06-22T06:58:05;15.07;;;11.85;;
19312;SDS011;9791;50.820;4.406;2023-06-22T07:00:33;16.98;;;12.93;;
19312;SDS011;9791;50.820;4.406;2023-06-22T07:03:00;16.70;;;12.05;;
19312;SDS011;9791;50.820;4.406;2023-06-22T07:05:27;17.00;;;12.05;;
19312;SDS011;9791;50.820;4.406;2023-06-22T07:07:53;15.75;;;12.25;;
19312;SDS011;9791;50.820;4.406;2023-06-22T07:10:19;15.45;;;12.40;;
19312;SDS011;9791;50.820;4.406;2023-06-22T07:12:45;16.83;;;11.88;;
19312;SDS011;9791;50.820;4.406;2023-06-22T07:15:11;20.65;;;12.20;;
19312;SDS011;9791;50.820;4.406;2023-06-22T07:17:37;17.30;;;13.07;;
19312;SDS011;9791;50.820;4.406;2023-06-22T07:20:07;17.05;;;12.32;;
19312;SDS011;9791;50.820;4.406;2023-06-22T07:22:35;19.05;;;12.00;;
19312;SDS011;9791;50.820;4.406;2023-06-22T07:25:01;15.82;;;12.20;;
19312;SDS011;9791;50.820;4.406;2023-06-22T07:27:33;20.05;;;10.45;;
19312;SDS011;9791;50.820;4.406;2023-06-22T07:30:01;17.77;;;11.07;;
19312;SDS011;9791;50.820;4.406;2023-06-22T07:32:27;16.02;;;10.63;;
19312;SDS011;9791;50.820;4.406;2023-06-22T07:34:53;13.63;;;10.82;;
19312;SDS011;9791;50.820;4.406;2023-06-22T07:37:20;13.82;;;10.20;;
19312;SDS011;9791;50.820;4.406;2023-06-22T07:39:46;15.38;;;11.02;;
19312;SDS011;9791;50.820;4.406;2023-06-22T07:42:12;15.52;;;10.60;;
19312;SDS011;9791;50.820;4.406;2023-06-22T07:44:38;16.85;;;10.23;;
19312;SDS011;9791;50.820;4.406;2023-06-22T07:47:04;14.05;;;10.75;;
19312;SDS011;9791;50.820;4.406;2023-06-22T07:49:30;15.90;;;11.50;;
19312;SDS011;9791;50.820;4.406;2023-06-22T07:51:56;13.95;;;11.65;;
19312;SDS011;9791;50.820;4.406;2023-06-22T07:54:22;19.35;;;11.35;;
19312;SDS011;9791;50.820;4.406;2023-06-22T07:56:48;17.10;;;12.30;;
19312;SDS011;9791;50.820;4.406;2023-06-22T07:59:14;15.25;;;11.43;;
19312;SDS011;9791;50.820;4.406;2023-06-22T08:01:40;14.48;;;11.23;;
19312;SDS011;9791;50.820;4.406;2023-06-22T08:04:06;16.42;;;11.18;;
19312;SDS011;9791;50.820;4.406;2023-06-22T08:06:33;15.73;;;11.35;;
19312;SDS011;9791;50.820;4.406;2023-06-22T08:08:59;14.65;;;11.77;;
19312;SDS011;9791;50.820;4.406;2023-06-22T08:11:25;16.42;;;12.25;;
19312;SDS011;9791;50.820;4.406;2023-06-22T08:13:52;17.70;;;11.45;;
19312;SDS011;9791;50.820;4.406;2023-06-22T08:16:20;16.58;;;11.68;;
19312;SDS011;9791;50.820;4.406;2023-06-22T08:18:46;16.77;;;13.18;;
19312;SDS011;9791;50.820;4.406;2023-06-22T08:21:12;17.38;;;12.25;;
19312;SDS011;9791;50.820;4.406;2023-06-22T08:23:38;17.48;;;11.82;;
19312;SDS011;9791;50.820;4.406;2023-06-22T08:26:04;14.38;;;11.45;;
19312;SDS011;9791;50.820;4.406;2023-06-22T08:28:30;20.50;;;13.02;;
19312;SDS011;9791;50.820;4.406;2023-06-22T08:30:56;21.90;;;11.85;;
19312;SDS011;9791;50.820;4.406;2023-06-22T08:33:23;15.82;;;11.75;;
19312;SDS011;9791;50.820;4.406;2023-06-22T08:35:54;19.70;;;12.35;;
19312;SDS011;9791;50.820;4.406;2023-06-22T08:38:20;18.95;;;12.90;;
19312;SDS011;9791;50.820;4.406;2023-06-22T08:40:46;18.38;;;12.18;;
19312;SDS011;9791;50.820;4.406;2023-06-22T08:43:12;16.10;;;12.18;;
19312;SDS011;9791;50.820;4.406;2023-06-22T08:45:38;14.90;;;10.45;;
19312;SDS011;9791;50.820;4.406;2023-06-22T08:48:04;15.65;;;11.52;;
19312;SDS011;9791;50.820;4.406;2023-06-22T08:50:30;16.67;;;11.85;;
19312;SDS011;9791;50.820;4.406;2023-06-22T08:52:56;15.55;;;12.35;;
19312;SDS011;9791;50.820;4.406;2023-06-22T08:55:22;17.10;;;12.68;;
19312;SDS011;9791;50.820;4.406;2023-06-22T08:57:48;17.15;;;11.60;;
19312;SDS011;9791;50.820;4.406;2023-06-22T09:00:14;16.27;;;10.82;;
19312;SDS011;9791;50.820;4.406;2023-06-22T09:02:42;16.42;;;10.90;;
19312;SDS011;9791;50.820;4.406;2023-06-22T09:05:09;18.05;;;11.10;;
19312;SDS011;9791;50.820;4.406;2023-06-22T09:07:35;12.95;;;9.98;;
19312;SDS011;9791;50.820;4.406;2023-06-22T09:10:01;15.18;;;10.48;;
19312;SDS011;9791;50.820;4.406;2023-06-22T09:12:29;14.27;;;10.10;;
19312;SDS011;9791;50.820;4.406;2023-06-22T09:14:56;13.68;;;10.07;;
19312;SDS011;9791;50.820;4.406;2023-06-22T09:17:22;15.20;;;10.48;;
19312;SDS011;9791;50.820;4.406;2023-06-22T09:19:48;12.13;;;9.63;;
19312;SDS011;9791;50.820;4.406;2023-06-22T09:22:14;17.55;;;10.00;;
19312;SDS011;9791;50.820;4.406;2023-06-22T09:24:40;13.77;;;10.55;;
19312;SDS011;9791;50.820;4.406;2023-06-22T09:27:06;21.00;;;10.00;;
19312;SDS011;9791;50.820;4.406;2023-06-22T09:29:32;14.70;;;10.70;;
19312;SDS011;9791;50.820;4.406;2023-06-22T09:31:59;18.20;;;11.18;;
19312;SDS011;9791;50.820;4.406;2023-06-22T09:34:25;28.50;;;14.23;;
19312;SDS011;9791;50.820;4.406;2023-06-22T09:36:51;21.38;;;14.20;;
19312;SDS011;9791;50.820;4.406;2023-06-22T09:39:18;20.58;;;15.15;;
19312;SDS011;9791;50.820;4.406;2023-06-22T09:41:44;21.08;;;14.43;;
19312;SDS011;9791;50.820;4.406;2023-06-22T09:44:10;22.02;;;15.00;;
19312;SDS011;9791;50.820;4.406;2023-06-22T09:46:36;21.42;;;14.43;;
19312;SDS011;9791;50.820;4.406;2023-06-22T09:49:02;24.42;;;14.93;;
19312;SDS011;9791;50.820;4.406;2023-06-22T09:51:28;22.00;;;16.30;;
19312;SDS011;9791;50.820;4.406;2023-06-22T09:53:54;25.25;;;17.10;;
19312;SDS011;9791;50.820;4.406;2023-06-22T09:56:21;21.30;;;16.73;;
19312;SDS011;9791;50.820;4.406;2023-06-22T09:58:47;27.02;;;18.52;;
19312;SDS011;9791;50.820;4.406;2023-06-22T10:01:15;29.67;;;18.25;;
19312;SDS011;9791;50.820;4.406;2023-06-22T10:03:41;32.88;;;20.65;;
19312;SDS011;9791;50.820;4.406;2023-06-22T10:06:07;42.90;;;22.50;;
19312;SDS011;9791;50.820;4.406;2023-06-22T10:08:35;28.45;;;20.05;;
19312;SDS011;9791;50.820;4.406;2023-06-22T10:11:01;42.92;;;22.63;;
19312;SDS011;9791;50.820;4.406;2023-06-22T10:13:27;42.20;;;22.67;;
19312;SDS011;9791;50.820;4.406;2023-06-22T10:15:53;35.58;;;22.85;;
19312;SDS011;9791;50.820;4.406;2023-06-22T10:18:19;34.05;;;22.08;;
19312;SDS011;9791;50.820;4.406;2023-06-22T10:20:47;31.40;;;20.27;;
19312;SDS011;9791;50.820;4.406;2023-06-22T10:23:13;27.25;;;19.30;;
19312;SDS011;9791;50.820;4.406;2023-06-22T10:25:39;27.90;;;19.20;;
19312;SDS011;9791;50.820;4.406;2023-06-22T10:28:05;33.95;;;19.45;;
19312;SDS011;9791;50.820;4.406;2023-06-22T10:30:32;33.35;;;20.65;;
19312;SDS011;9791;50.820;4.406;2023-06-22T10:32:58;28.95;;;20.70;;
19312;SDS011;9791;50.820;4.406;2023-06-22T10:35:24;31.15;;;20.52;;
19312;SDS011;9791;50.820;4.406;2023-06-22T10:37:50;28.67;;;19.23;;
19312;SDS011;9791;50.820;4.406;2023-06-22T10:40:16;24.20;;;19.33;;
19312;SDS011;9791;50.820;4.406;2023-06-22T10:42:43;24.95;;;18.83;;
19312;SDS011;9791;50.820;4.406;2023-06-22T10:45:10;22.15;;;18.23;;
19312;SDS011;9791;50.820;4.406;2023-06-22T10:47:36;27.30;;;19.15;;
19312;SDS011;9791;50.820;4.406;2023-06-22T10:50:02;27.10;;;19.90;;
19312;SDS011;9791;50.820;4.406;2023-06-22T10:52:29;25.13;;;19.98;;
19312;SDS011;9791;50.820;4.406;2023-06-22T10:54:55;27.60;;;20.05;;
19312;SDS011;9791;50.820;4.406;2023-06-22T10:57:21;27.85;;;21.42;;
19312;SDS011;9791;50.820;4.406;2023-06-22T10:59:47;27.95;;;19.88;;
19312;SDS011;9791;50.820;4.406;2023-06-22T11:02:13;23.25;;;19.15;;
19312;SDS011;9791;50.820;4.406;2023-06-22T11:04:39;24.90;;;19.58;;
19312;SDS011;9791;50.820;4.406;2023-06-22T11:07:05;23.15;;;18.42;;
19312;SDS011;9791;50.820;4.406;2023-06-22T11:09:31;23.45;;;19.63;;
19312;SDS011;9791;50.820;4.406;2023-06-22T11:11:58;24.35;;;19.25;;
19312;SDS011;9791;50.820;4.406;2023-06-22T11:14:24;25.00;;;19.27;;
19312;SDS011;9791;50.820;4.406;2023-06-22T11:16:50;24.58;;;19.48;;
19312;SDS011;9791;50.820;4.406;2023-06-22T11:19:17;25.50;;;18.40;;
19312;SDS011;9791;50.820;4.406;2023-06-22T11:21:43;24.77;;;18.80;;
19312;SDS011;9791;50.820;4.406;2023-06-22T11:24:09;22.10;;;19.35;;
19312;SDS011;9791;50.820;4.406;2023-06-22T11:26:35;23.75;;;18.55;;
19312;SDS011;9791;50.820;4.406;2023-06-22T11:29:02;25.33;;;19.35;;
19312;SDS011;9791;50.820;4.406;2023-06-22T11:31:35;23.33;;;19.20;;
19312;SDS011;9791;50.820;4.406;2023-06-22T11:34:02;21.95;;;19.02;;
19312;SDS011;9791;50.820;4.406;2023-06-22T11:36:28;23.27;;;18.83;;
19312;SDS011;9791;50.820;4.406;2023-06-22T11:38:57;25.40;;;19.58;;
19312;SDS011;9791;50.820;4.406;2023-06-22T11:41:23;23.25;;;19.13;;
19312;SDS011;9791;50.820;4.406;2023-06-22T11:43:49;22.52;;;19.20;;
19312;SDS011;9791;50.820;4.406;2023-06-22T11:46:15;24.17;;;19.17;;
19312;SDS011;9791;50.820;4.406;2023-06-22T11:48:41;21.77;;;19.10;;
19312;SDS011;9791;50.820;4.406;2023-06-22T11:51:08;22.13;;;19.00;;
19312;SDS011;9791;50.820;4.406;2023-06-22T11:53:34;22.52;;;18.77;;
19312;SDS011;9791;50.820;4.406;2023-06-22T11:56:00;21.70;;;18.35;;
19312;SDS011;9791;50.820;4.406;2023-06-22T11:58:26;20.17;;;18.00;;
19312;SDS011;9791;50.820;4.406;2023-06-22T12:00:53;21.92;;;18.00;;
19312;SDS011;9791;50.820;4.406;2023-06-22T12:03:19;22.45;;;17.70;;
19312;SDS011;9791;50.820;4.406;2023-06-22T12:05:49;21.10;;;17.63;;
19312;SDS011;9791;50.820;4.406;2023-06-22T12:08:16;18.40;;;16.40;;
19312;SDS011;9791;50.820;4.406;2023-06-22T12:10:42;20.60;;;17.33;;
19312;SDS011;9791;50.820;4.406;2023-06-22T12:13:08;19.48;;;17.42;;
19312;SDS011;9791;50.820;4.406;2023-06-22T12:15:34;21.33;;;17.30;;
19312;SDS011;9791;50.820;4.406;2023-06-22T12:18:00;21.90;;;16.75;;
19312;SDS011;9791;50.820;4.406;2023-06-22T12:20:26;19.35;;;17.25;;
19312;SDS011;9791;50.820;4.406;2023-06-22T12:22:52;21.38;;;18.00;;
19312;SDS011;9791;50.820;4.406;2023-06-22T12:25:21;18.48;;;16.45;;
19312;SDS011;9791;50.820;4.406;2023-06-22T12:27:47;20.50;;;18.35;;
19312;SDS011;9791;50.820;4.406;2023-06-22T12:30:15;21.63;;;17.90;;
19312;SDS011;9791;50.820;4.406;2023-06-22T12:32:41;20.35;;;18.15;;
19312;SDS011;9791;50.820;4.406;2023-06-22T12:35:07;20.48;;;18.30;;
19312;SDS011;9791;50.820;4.406;2023-06-22T12:37:38;23.20;;;17.70;;
19312;SDS011;9791;50.820;4.406;2023-06-22T12:40:05;22.63;;;19.75;;
19312;SDS011;9791;50.820;4.406;2023-06-22T12:42:31;21.70;;;18.63;;
19312;SDS011;9791;50.820;4.406;2023-06-22T12:44:57;23.90;;;20.05;;
19312;SDS011;9791;50.820;4.406;2023-06-22T12:47:23;21.95;;;19.05;;
19312;SDS011;9791;50.820;4.406;2023-06-22T12:49:49;20.67;;;18.52;;
19312;SDS011;9791;50.820;4.406;2023-06-22T12:52:15;26.45;;;19.70;;
19312;SDS011;9791;50.820;4.406;2023-06-22T12:54:41;23.80;;;20.38;;
19312;SDS011;9791;50.820;4.406;2023-06-22T12:57:07;27.75;;;20.30;;
19312;SDS011;9791;50.820;4.406;2023-06-22T12:59:34;26.15;;;19.95;;
19312;SDS011;9791;50.820;4.406;2023-06-22T13:02:00;26.02;;;21.45;;
19312;SDS011;9791;50.820;4.406;2023-06-22T13:04:26;24.65;;;20.20;;
19312;SDS011;9791;50.820;4.406;2023-06-22T13:06:52;28.50;;;22.33;;
19312;SDS011;9791;50.820;4.406;2023-06-22T13:09:19;26.30;;;22.98;;
19312;SDS011;9791;50.820;4.406;2023-06-22T13:11:45;26.98;;;23.45;;
19312;SDS011;9791;50.820;4.406;2023-06-22T13:14:11;25.23;;;22.40;;
19312;SDS011;9791;50.820;4.406;2023-06-22T13:16:37;27.80;;;22.60;;
19312;SDS011;9791;50.820;4.406;2023-06-22T13:19:03;29.63;;;23.33;;
19312;SDS011;9791;50.820;4.406;2023-06-22T13:21:30;32.47;;;23.90;;
19312;SDS011;9791;50.820;4.406;2023-06-22T13:23:56;27.20;;;23.42;;
19312;SDS011;9791;50.820;4.406;2023-06-22T13:26:22;29.60;;;23.58;;
19312;SDS011;9791;50.820;4.406;2023-06-22T13:28:48;27.88;;;22.83;;
19312;SDS011;9791;50.820;4.406;2023-06-22T13:31:14;28.88;;;23.50;;
19312;SDS011;9791;50.820;4.406;2023-06-22T13:33:40;29.70;;;25.13;;
19312;SDS011;9791;50.820;4.406;2023-06-22T13:36:06;30.30;;;24.17;;
19312;SDS011;9791;50.820;4.406;2023-06-22T13:38:32;28.73;;;24.30;;
19312;SDS011;9791;50.820;4.406;2023-06-22T13:40:58;28.42;;;23.92;;
19312;SDS011;9791;50.820;4.406;2023-06-22T13:43:26;27.95;;;24.20;;
19312;SDS011;9791;50.820;4.406;2023-06-22T13:45:52;26.20;;;22.20;;
19312;SDS011;9791;50.820;4.406;2023-06-22T13:48:18;23.65;;;20.75;;
19312;SDS011;9791;50.820;4.406;2023-06-22T13:50:44;23.50;;;19.83;;
19312;SDS011;9791;50.820;4.406;2023-06-22T13:53:10;23.70;;;20.00;;
19312;SDS011;9791;50.820;4.406;2023-06-22T13:55:36;23.80;;;20.30;;
19312;SDS011;9791;50.820;4.406;2023-06-22T13:58:02;24.80;;;20.52;;
19312;SDS011;9791;50.820;4.406;2023-06-22T14:00:28;23.15;;;18.60;;
19312;SDS011;9791;50.820;4.406;2023-06-22T14:02:54;23.40;;;19.92;;
19312;SDS011;9791;50.820;4.406;2023-06-22T14:05:20;24.30;;;21.02;;
19312;SDS011;9791;50.820;4.406;2023-06-22T14:07:47;24.83;;;20.00;;
19312;SDS011;9791;50.820;4.406;2023-06-22T14:10:13;25.38;;;20.38;;
19312;SDS011;9791;50.820;4.406;2023-06-22T14:12:39;24.20;;;21.30;;
19312;SDS011;9791;50.820;4.406;2023-06-22T14:15:05;24.35;;;20.92;;
19312;SDS011;9791;50.820;4.406;2023-06-22T14:17:31;22.88;;;20.33;;
19312;SDS011;9791;50.820;4.406;2023-06-22T14:19:57;21.35;;;18.77;;
19312;SDS011;9791;50.820;4.406;2023-06-22T14:22:23;24.55;;;20.52;;
19312;SDS011;9791;50.820;4.406;2023-06-22T14:24:50;22.73;;;19.98;;
19312;SDS011;9791;50.820;4.406;2023-06-22T14:27:16;24.02;;;20.23;;
19312;SDS011;9791;50.820;4.406;2023-06-22T14:29:42;22.77;;;20.27;;
19312;SDS011;9791;50.820;4.406;2023-06-22T14:32:09;21.77;;;19.40;;
19312;SDS011;9791;50.820;4.406;2023-06-22T14:34:35;24.45;;;20.38;;
19312;SDS011;9791;50.820;4.406;2023-06-22T14:37:04;22.35;;;19.58;;
19312;SDS011;9791;50.820;4.406;2023-06-22T14:39:30;23.10;;;19.58;;
19312;SDS011;9791;50.820;4.406;2023-06-22T14:41:56;25.30;;;20.65;;
19312;SDS011;9791;50.820;4.406;2023-06-22T14:44:22;25.67;;;21.98;;